Historique des mesures à Cassis (13260), France
Quotidien Résumé Juillet 22, 2017 Unités:  Métrique    US   Métrique/US
« Précédent (Jour)
Suivant (Jour) »
Quotidien Hebdomadaire Mensuel Annuel Période au choix
  Maximum: Minimum: Moyenne:
Température: TemperatureC °C 22.2 °C 25.2 °C
Point de rosée: DewpointC °C 18.8 °C 20 °C
Humidité: Humidity % 59 % 70 %
Vitesse du vent: 0 km/h 0 km/h 3.7 km/h
Rafales: 0 km/h - -
Vent:- - SSE
Pression: PressurehPa hPa 1008.4 hPa -
Précipitations: 0.0 mm    
Historical Graphs
 
 
Mesures pour : Juillet 22, 2017
Heure Temperature Point de rosée Pression Vent Vitesse du vent Rafales Humidité Pluie (par heure) Conditions
TemperatureC °C DewpointC °C PressurehPa hPa Calm     Humidity % HourlyPrecipMM mm SoftwareType W/m2
00:11 23.9 °C 20.1 °C 1008.4 hPa Calm     79 % 0.0 mm open2300-1.11 W/m2
01:11 23.8 °C 20.2 °C 1008.7 hPa Calm     80 % 0.0 mm open2300-1.11 W/m2
02:11 23.4 °C 19.8 °C 1009.0 hPa NW 20.9 km/h 20.9 km/h 80 % 0.0 mm open2300-1.11 W/m2
03:11 22.9 °C 19.7 °C 1008.7 hPa Calm     82 % 0.0 mm open2300-1.11 W/m2
04:11 22.6 °C 19.4 °C 1008.7 hPa Calm     82 % 0.0 mm open2300-1.11 W/m2
05:11 22.3 °C 19.1 °C 1008.7 hPa Calm   2.3 km/h 82 % 0.0 mm open2300-1.11 W/m2
06:11 22.2 °C 18.8 °C 1009.0 hPa NNE 6.9 km/h 6.9 km/h 81 % 0.0 mm open2300-1.11 W/m2
07:11 22.4 °C 19.2 °C 1009.0 hPa North 2.3 km/h 4.2 km/h 82 % 0.0 mm open2300-1.11 W/m2
08:11 24.8 °C 20.5 °C 1009.4 hPa East 2.3 km/h 2.3 km/h 77 % 0.0 mm open2300-1.11 W/m2
09:11 25.2 °C 20.2 °C 1009.4 hPa SE 4.2 km/h 6.9 km/h 74 % 0.0 mm open2300-1.11 W/m2
10:11 25.6 °C 20.6 °C 1010.0 hPa ESE 4.2 km/h 12.7 km/h 74 % 0.0 mm open2300-1.11 W/m2
11:11 29.8 °C 22.5 °C 1010.4 hPa SSE 8.9 km/h 8.9 km/h 65 % 0.0 mm open2300-1.11 W/m2
12:11 31.0 °C 22.7 °C 1010.4 hPa South 4.2 km/h 6.4 km/h 61 % 0.0 mm open2300-1.11 W/m2
13:11 30.8 °C 22.4 °C 1010.7 hPa South 5.1 km/h 6.9 km/h 61 % 0.0 mm open2300-1.11 W/m2
14:11 31.2 °C 22.3 °C 1010.7 hPa ESE 11.6 km/h 11.6 km/h 59 % 0.0 mm open2300-1.11 W/m2
15:11 30.2 °C 22.1 °C 1010.7 hPa South 8.9 km/h 8.9 km/h 62 % 0.0 mm open2300-1.11 W/m2
16:11 29.5 °C 22.2 °C 1011.1 hPa SSW 5.1 km/h 14 km/h 65 % 0.0 mm open2300-1.11 W/m2
17:11 29.3 °C 22.3 °C 1010.7 hPa South 5.6 km/h 12.7 km/h 66 % 0.0 mm open2300-1.11 W/m2
18:11 28.5 °C 21.5 °C 1010.4 hPa West 2.3 km/h 9.8 km/h 66 % 0.0 mm open2300-1.11 W/m2
19:11 28.3 °C 21.3 °C 1010.0 hPa Calm   15 km/h 66 % 0.0 mm open2300-1.11 W/m2
20:11 27.3 °C 21.4 °C 1010.7 hPa Calm   7.6 km/h 70 % 0.0 mm open2300-1.11 W/m2
21:11 26.4 °C 21.2 °C 1010.7 hPa Calm     73 % 0.0 mm open2300-1.11 W/m2
22:11 25.4 °C 20.8 °C 1011.7 hPa Calm     76 % 0.0 mm open2300-1.11 W/m2
23:11 24.4 °C 20.1 °C 1012.4 hPa Calm     77 % 0.0 mm open2300-1.11 W/m2
Observations météo à CASSIS
WU-History script by Weather Underground - 1 mb